Main page
METAR-TAF:

METAR-TAF

Airports :

Tarbes–Lourdes–Pyrénées Airport

Tarbes Lourdes, France

latitude: 43-11N, longitude: 000-00W, elevation: 379 m

Current weather observation

The report was made 16 minutes ago, at 19:00 UTC
Wind 2 kt from the North
Temperature 14°C
Humidity 88%
Pressure 1015 hPa
Visibility 10 km or more
no clouds below 1500 m and no cumulonimbus

METAR: LFBT 181900Z AUTO 36002KT CAVOK 14/12 Q1015 NOSIG

Time: 21:16 (19:16 UTC)

Forecast

The report was made 2 hours and 16 minutes ago, at 17:00 UTC
Forecast valid from 18 at 18 UTC to 19 at 18 UTC
Wind 3 kt from variable directions
Visibility 10 km or more
no clouds below 1500 m and no cumulonimbus
Probability 30%
from 18 at 22 UTC to 19 at 06 UTC
Broken clouds at a height of 500 ft

TAF: LFBT 181700Z 1818/1918 VRB03KT CAVOK PROB30 1822/1906 BKN005

Weather observations and forecasts of more than 4000 airports (METAR and TAF reports).

The available stations are represented by yellow and red dots on the map.

Hover mouse over dot to see the name of the station.

Then click to see weather observations and forecasts.

To change the map : click on the green buttons with a black cross to zoom in, on the green button with a dash to zoom out, or on the green arrows for adjacent maps.


METAR-TAF: